sensor_id;sensor_type;location;lat;lon;timestamp;temperature;humidity
53274;DHT22;39163;52.696;6.758;2023-01-23T00:00:56;2.50;99.90
53274;DHT22;39163;52.696;6.758;2023-01-23T00:03:22;2.50;99.90
53274;DHT22;39163;52.696;6.758;2023-01-23T00:06:05;2.50;99.90
53274;DHT22;39163;52.696;6.758;2023-01-23T00:08:32;2.50;99.90
53274;DHT22;39163;52.696;6.758;2023-01-23T00:11:04;2.60;99.90
53274;DHT22;39163;52.696;6.758;2023-01-23T00:13:31;2.50;99.90
53274;DHT22;39163;52.696;6.758;2023-01-23T00:15:56;2.60;99.90
53274;DHT22;39163;52.696;6.758;2023-01-23T00:18:22;2.50;99.90
53274;DHT22;39163;52.696;6.758;2023-01-23T00:20:48;2.50;99.90
53274;DHT22;39163;52.696;6.758;2023-01-23T00:23:13;2.50;99.90
53274;DHT22;39163;52.696;6.758;2023-01-23T00:25:39;2.50;99.90
53274;DHT22;39163;52.696;6.758;2023-01-23T00:28:05;2.50;99.90
53274;DHT22;39163;52.696;6.758;2023-01-23T00:30:30;2.50;99.90
53274;DHT22;39163;52.696;6.758;2023-01-23T00:32:56;2.50;99.90
53274;DHT22;39163;52.696;6.758;2023-01-23T00:35:21;2.50;99.90
53274;DHT22;39163;52.696;6.758;2023-01-23T00:37:47;2.50;99.90
53274;DHT22;39163;52.696;6.758;2023-01-23T00:40:16;2.60;99.90
53274;DHT22;39163;52.696;6.758;2023-01-23T00:42:41;2.60;99.90
53274;DHT22;39163;52.696;6.758;2023-01-23T00:45:07;2.60;99.90
53274;DHT22;39163;52.696;6.758;2023-01-23T00:47:32;2.60;99.90
53274;DHT22;39163;52.696;6.758;2023-01-23T00:49:58;2.50;99.90
53274;DHT22;39163;52.696;6.758;2023-01-23T00:52:24;2.50;99.90
53274;DHT22;39163;52.696;6.758;2023-01-23T00:54:50;2.60;99.90
53274;DHT22;39163;52.696;6.758;2023-01-23T00:57:15;2.60;99.90
53274;DHT22;39163;52.696;6.758;2023-01-23T00:59:41;2.60;99.90
53274;DHT22;39163;52.696;6.758;2023-01-23T01:02:19;2.60;99.90
53274;DHT22;39163;52.696;6.758;2023-01-23T01:04:44;2.60;99.90
53274;DHT22;39163;52.696;6.758;2023-01-23T01:07:13;2.60;99.90
53274;DHT22;39163;52.696;6.758;2023-01-23T01:09:38;2.60;99.90
53274;DHT22;39163;52.696;6.758;2023-01-23T01:12:04;2.70;99.90
53274;DHT22;39163;52.696;6.758;2023-01-23T01:14:30;2.60;99.90
53274;DHT22;39163;52.696;6.758;2023-01-23T01:16:56;2.60;99.90
53274;DHT22;39163;52.696;6.758;2023-01-23T01:19:23;2.60;99.90
53274;DHT22;39163;52.696;6.758;2023-01-23T01:21:48;2.60;99.90
53274;DHT22;39163;52.696;6.758;2023-01-23T01:24:20;2.60;99.90
53274;DHT22;39163;52.696;6.758;2023-01-23T01:26:46;2.60;99.90
53274;DHT22;39163;52.696;6.758;2023-01-23T01:29:11;2.60;99.90
53274;DHT22;39163;52.696;6.758;2023-01-23T01:31:43;2.60;99.90
53274;DHT22;39163;52.696;6.758;2023-01-23T01:34:08;2.70;99.90
53274;DHT22;39163;52.696;6.758;2023-01-23T01:36:34;2.70;99.90
53274;DHT22;39163;52.696;6.758;2023-01-23T01:39:02;2.60;99.90
53274;DHT22;39163;52.696;6.758;2023-01-23T01:41:30;2.70;99.90
53274;DHT22;39163;52.696;6.758;2023-01-23T01:44:02;2.70;99.90
53274;DHT22;39163;52.696;6.758;2023-01-23T01:46:29;2.70;99.90
53274;DHT22;39163;52.696;6.758;2023-01-23T01:49:14;2.70;99.90
53274;DHT22;39163;52.696;6.758;2023-01-23T01:51:45;2.70;99.90
53274;DHT22;39163;52.696;6.758;2023-01-23T01:59:32;2.70;99.90
53274;DHT22;39163;52.696;6.758;2023-01-23T02:02:03;2.70;99.90
53274;DHT22;39163;52.696;6.758;2023-01-23T02:04:35;2.70;99.90
53274;DHT22;39163;52.696;6.758;2023-01-23T02:07:02;2.70;99.90
53274;DHT22;39163;52.696;6.758;2023-01-23T02:09:29;2.70;99.90
53274;DHT22;39163;52.696;6.758;2023-01-23T02:11:58;2.70;99.90
53274;DHT22;39163;52.696;6.758;2023-01-23T02:14:24;2.60;99.90
53274;DHT22;39163;52.696;6.758;2023-01-23T02:16:50;2.70;99.90
53274;DHT22;39163;52.696;6.758;2023-01-23T02:21:46;2.70;99.90
53274;DHT22;39163;52.696;6.758;2023-01-23T02:24:16;2.70;99.90
53274;DHT22;39163;52.696;6.758;2023-01-23T02:26:44;2.70;99.90
53274;DHT22;39163;52.696;6.758;2023-01-23T02:29:11;2.70;99.90
53274;DHT22;39163;52.696;6.758;2023-01-23T02:31:36;2.70;99.90
53274;DHT22;39163;52.696;6.758;2023-01-23T02:34:02;2.70;99.90
53274;DHT22;39163;52.696;6.758;2023-01-23T02:36:30;2.70;99.90
53274;DHT22;39163;52.696;6.758;2023-01-23T02:41:44;2.70;99.90
53274;DHT22;39163;52.696;6.758;2023-01-23T02:44:18;2.70;99.90
53274;DHT22;39163;52.696;6.758;2023-01-23T02:46:44;2.70;99.90
53274;DHT22;39163;52.696;6.758;2023-01-23T02:49:10;2.80;99.90
53274;DHT22;39163;52.696;6.758;2023-01-23T02:51:35;2.70;99.90
53274;DHT22;39163;52.696;6.758;2023-01-23T02:54:13;2.70;99.90
53274;DHT22;39163;52.696;6.758;2023-01-23T02:56:39;2.70;99.90
53274;DHT22;39163;52.696;6.758;2023-01-23T02:59:06;2.80;99.90
53274;DHT22;39163;52.696;6.758;2023-01-23T03:01:50;2.70;99.90
53274;DHT22;39163;52.696;6.758;2023-01-23T03:04:19;2.80;99.90
53274;DHT22;39163;52.696;6.758;2023-01-23T03:06:44;2.70;99.90
53274;DHT22;39163;52.696;6.758;2023-01-23T03:09:12;2.80;99.90
53274;DHT22;39163;52.696;6.758;2023-01-23T03:11:41;2.80;99.90
53274;DHT22;39163;52.696;6.758;2023-01-23T03:14:10;2.70;99.90
53274;DHT22;39163;52.696;6.758;2023-01-23T03:16:38;2.80;99.90
53274;DHT22;39163;52.696;6.758;2023-01-23T03:19:06;2.80;99.90
53274;DHT22;39163;52.696;6.758;2023-01-23T03:21:37;2.80;99.90
53274;DHT22;39163;52.696;6.758;2023-01-23T03:24:05;2.80;99.90
53274;DHT22;39163;52.696;6.758;2023-01-23T03:26:31;2.80;99.90
53274;DHT22;39163;52.696;6.758;2023-01-23T03:28:57;2.70;99.90
53274;DHT22;39163;52.696;6.758;2023-01-23T03:31:41;2.80;99.90
53274;DHT22;39163;52.696;6.758;2023-01-23T03:34:07;2.80;99.90
53274;DHT22;39163;52.696;6.758;2023-01-23T03:36:33;2.80;99.90
53274;DHT22;39163;52.696;6.758;2023-01-23T03:39:02;2.80;99.90
53274;DHT22;39163;52.696;6.758;2023-01-23T03:41:47;2.80;99.90
53274;DHT22;39163;52.696;6.758;2023-01-23T03:44:12;2.70;99.90
53274;DHT22;39163;52.696;6.758;2023-01-23T03:46:38;2.80;99.90
53274;DHT22;39163;52.696;6.758;2023-01-23T03:49:03;2.80;99.90
53274;DHT22;39163;52.696;6.758;2023-01-23T03:51:29;2.80;99.90
53274;DHT22;39163;52.696;6.758;2023-01-23T03:53:54;2.80;99.90
53274;DHT22;39163;52.696;6.758;2023-01-23T03:56:20;2.70;99.90
53274;DHT22;39163;52.696;6.758;2023-01-23T03:58:45;2.80;99.90
53274;DHT22;39163;52.696;6.758;2023-01-23T04:01:11;2.70;99.90
53274;DHT22;39163;52.696;6.758;2023-01-23T04:03:37;2.80;99.90
53274;DHT22;39163;52.696;6.758;2023-01-23T04:06:03;2.70;99.90
53274;DHT22;39163;52.696;6.758;2023-01-23T04:08:28;2.70;99.90
53274;DHT22;39163;52.696;6.758;2023-01-23T04:11:03;2.70;99.90
53274;DHT22;39163;52.696;6.758;2023-01-23T04:13:30;2.70;99.90
53274;DHT22;39163;52.696;6.758;2023-01-23T04:15:55;2.70;99.90
53274;DHT22;39163;52.696;6.758;2023-01-23T04:18:21;2.70;99.90
53274;DHT22;39163;52.696;6.758;2023-01-23T04:20:47;2.70;99.90
53274;DHT22;39163;52.696;6.758;2023-01-23T04:23:13;2.70;99.90
53274;DHT22;39163;52.696;6.758;2023-01-23T04:25:38;2.70;99.90
53274;DHT22;39163;52.696;6.758;2023-01-23T04:28:04;2.80;99.90
53274;DHT22;39163;52.696;6.758;2023-01-23T04:30:29;2.70;99.90
53274;DHT22;39163;52.696;6.758;2023-01-23T04:32:55;2.80;99.90
53274;DHT22;39163;52.696;6.758;2023-01-23T04:35:21;2.80;99.90
53274;DHT22;39163;52.696;6.758;2023-01-23T04:37:46;2.70;99.90
53274;DHT22;39163;52.696;6.758;2023-01-23T04:40:12;2.80;99.90
53274;DHT22;39163;52.696;6.758;2023-01-23T04:42:37;2.70;99.90
53274;DHT22;39163;52.696;6.758;2023-01-23T04:45:03;2.70;99.90
53274;DHT22;39163;52.696;6.758;2023-01-23T04:47:29;2.70;99.90
53274;DHT22;39163;52.696;6.758;2023-01-23T04:49:54;2.70;99.90
53274;DHT22;39163;52.696;6.758;2023-01-23T04:52:20;2.70;99.90
53274;DHT22;39163;52.696;6.758;2023-01-23T04:54:45;2.70;99.90
53274;DHT22;39163;52.696;6.758;2023-01-23T04:57:11;2.70;99.90
53274;DHT22;39163;52.696;6.758;2023-01-23T04:59:37;2.70;99.90
53274;DHT22;39163;52.696;6.758;2023-01-23T05:02:02;2.70;99.90
53274;DHT22;39163;52.696;6.758;2023-01-23T05:04:28;2.70;99.90
53274;DHT22;39163;52.696;6.758;2023-01-23T05:06:53;2.80;99.90
53274;DHT22;39163;52.696;6.758;2023-01-23T05:09:19;2.70;99.90
53274;DHT22;39163;52.696;6.758;2023-01-23T05:11:44;2.70;99.90
53274;DHT22;39163;52.696;6.758;2023-01-23T05:14:10;2.70;99.90
53274;DHT22;39163;52.696;6.758;2023-01-23T05:16:35;2.70;99.90
53274;DHT22;39163;52.696;6.758;2023-01-23T05:19:01;2.70;99.90
53274;DHT22;39163;52.696;6.758;2023-01-23T05:21:27;2.70;99.90
53274;DHT22;39163;52.696;6.758;2023-01-23T05:23:52;2.70;99.90
53274;DHT22;39163;52.696;6.758;2023-01-23T05:26:18;2.60;99.90
53274;DHT22;39163;52.696;6.758;2023-01-23T05:28:44;2.80;99.90
53274;DHT22;39163;52.696;6.758;2023-01-23T05:31:09;2.70;99.90
53274;DHT22;39163;52.696;6.758;2023-01-23T05:33:35;2.70;99.90
53274;DHT22;39163;52.696;6.758;2023-01-23T05:36:01;2.60;99.90
53274;DHT22;39163;52.696;6.758;2023-01-23T05:38:26;2.60;99.90
53274;DHT22;39163;52.696;6.758;2023-01-23T05:40:52;2.60;99.90
53274;DHT22;39163;52.696;6.758;2023-01-23T05:43:18;2.60;99.90
53274;DHT22;39163;52.696;6.758;2023-01-23T05:45:43;2.70;99.90
53274;DHT22;39163;52.696;6.758;2023-01-23T05:48:09;2.60;99.90
53274;DHT22;39163;52.696;6.758;2023-01-23T05:50:34;2.70;99.90
53274;DHT22;39163;52.696;6.758;2023-01-23T05:53:00;2.70;99.90
53274;DHT22;39163;52.696;6.758;2023-01-23T05:55:26;2.60;99.90
53274;DHT22;39163;52.696;6.758;2023-01-23T05:57:51;2.60;99.90
53274;DHT22;39163;52.696;6.758;2023-01-23T06:00:17;2.70;99.90
53274;DHT22;39163;52.696;6.758;2023-01-23T06:02:43;2.60;99.90
53274;DHT22;39163;52.696;6.758;2023-01-23T06:05:08;2.60;99.90
53274;DHT22;39163;52.696;6.758;2023-01-23T06:07:34;2.50;99.90
53274;DHT22;39163;52.696;6.758;2023-01-23T06:10:00;2.60;99.90
53274;DHT22;39163;52.696;6.758;2023-01-23T06:12:26;2.60;99.90
53274;DHT22;39163;52.696;6.758;2023-01-23T06:14:51;2.70;99.90
53274;DHT22;39163;52.696;6.758;2023-01-23T06:17:17;2.60;99.90
53274;DHT22;39163;52.696;6.758;2023-01-23T06:19:43;2.60;99.90
53274;DHT22;39163;52.696;6.758;2023-01-23T06:22:08;2.60;99.90
53274;DHT22;39163;52.696;6.758;2023-01-23T06:24:34;2.60;99.90
53274;DHT22;39163;52.696;6.758;2023-01-23T06:27:02;2.60;99.90
53274;DHT22;39163;52.696;6.758;2023-01-23T06:29:35;2.70;99.90
53274;DHT22;39163;52.696;6.758;2023-01-23T06:32:06;2.60;99.90
53274;DHT22;39163;52.696;6.758;2023-01-23T06:34:31;2.60;99.90
53274;DHT22;39163;52.696;6.758;2023-01-23T06:36:57;2.60;99.90
53274;DHT22;39163;52.696;6.758;2023-01-23T06:39:23;2.70;99.90
53274;DHT22;39163;52.696;6.758;2023-01-23T06:41:48;2.60;99.90
53274;DHT22;39163;52.696;6.758;2023-01-23T06:44:14;2.60;99.90
53274;DHT22;39163;52.696;6.758;2023-01-23T06:46:40;2.60;99.90
53274;DHT22;39163;52.696;6.758;2023-01-23T06:49:05;2.60;99.90
53274;DHT22;39163;52.696;6.758;2023-01-23T06:51:31;2.70;99.90
53274;DHT22;39163;52.696;6.758;2023-01-23T06:53:57;2.60;99.90
53274;DHT22;39163;52.696;6.758;2023-01-23T06:56:23;2.60;99.90
53274;DHT22;39163;52.696;6.758;2023-01-23T06:58:48;2.60;99.90
53274;DHT22;39163;52.696;6.758;2023-01-23T07:01:15;2.60;99.90
53274;DHT22;39163;52.696;6.758;2023-01-23T07:03:41;2.70;99.90
53274;DHT22;39163;52.696;6.758;2023-01-23T07:06:15;2.60;99.90
53274;DHT22;39163;52.696;6.758;2023-01-23T07:08:50;2.70;99.90
53274;DHT22;39163;52.696;6.758;2023-01-23T07:11:25;2.60;99.90
53274;DHT22;39163;52.696;6.758;2023-01-23T07:13:51;2.60;99.90
53274;DHT22;39163;52.696;6.758;2023-01-23T07:16:16;2.60;99.90
53274;DHT22;39163;52.696;6.758;2023-01-23T07:18:42;2.60;99.90
53274;DHT22;39163;52.696;6.758;2023-01-23T07:21:08;2.60;99.90
53274;DHT22;39163;52.696;6.758;2023-01-23T07:23:33;2.70;99.90
53274;DHT22;39163;52.696;6.758;2023-01-23T07:26:00;2.60;99.90
53274;DHT22;39163;52.696;6.758;2023-01-23T07:28:26;2.80;99.90
53274;DHT22;39163;52.696;6.758;2023-01-23T07:30:52;2.60;99.90
53274;DHT22;39163;52.696;6.758;2023-01-23T07:33:17;2.70;99.90
53274;DHT22;39163;52.696;6.758;2023-01-23T07:35:43;2.70;99.90
53274;DHT22;39163;52.696;6.758;2023-01-23T07:38:08;2.70;99.90
53274;DHT22;39163;52.696;6.758;2023-01-23T07:40:34;2.70;99.90
53274;DHT22;39163;52.696;6.758;2023-01-23T07:43:05;2.70;99.90
53274;DHT22;39163;52.696;6.758;2023-01-23T07:45:31;2.60;99.90
53274;DHT22;39163;52.696;6.758;2023-01-23T07:47:56;2.70;99.90
53274;DHT22;39163;52.696;6.758;2023-01-23T07:50:22;2.70;99.90
53274;DHT22;39163;52.696;6.758;2023-01-23T07:52:48;2.60;99.90
53274;DHT22;39163;52.696;6.758;2023-01-23T07:55:13;2.70;99.90
53274;DHT22;39163;52.696;6.758;2023-01-23T07:57:39;2.70;99.90
53274;DHT22;39163;52.696;6.758;2023-01-23T08:00:05;2.70;99.90
53274;DHT22;39163;52.696;6.758;2023-01-23T08:02:30;2.70;99.90
53274;DHT22;39163;52.696;6.758;2023-01-23T08:04:56;2.70;99.90
53274;DHT22;39163;52.696;6.758;2023-01-23T08:07:22;2.70;99.90
53274;DHT22;39163;52.696;6.758;2023-01-23T08:09:51;2.70;99.90
53274;DHT22;39163;52.696;6.758;2023-01-23T08:12:17;2.70;99.90
53274;DHT22;39163;52.696;6.758;2023-01-23T08:14:42;2.70;99.90
53274;DHT22;39163;52.696;6.758;2023-01-23T08:17:08;2.80;99.90
53274;DHT22;39163;52.696;6.758;2023-01-23T08:19:34;2.80;99.90
53274;DHT22;39163;52.696;6.758;2023-01-23T08:21:59;2.80;99.90
53274;DHT22;39163;52.696;6.758;2023-01-23T08:24:25;2.80;99.90
53274;DHT22;39163;52.696;6.758;2023-01-23T08:26:50;2.80;99.90
53274;DHT22;39163;52.696;6.758;2023-01-23T08:29:16;2.80;99.90
53274;DHT22;39163;52.696;6.758;2023-01-23T08:31:42;2.80;99.90
53274;DHT22;39163;52.696;6.758;2023-01-23T08:34:07;2.80;99.90
53274;DHT22;39163;52.696;6.758;2023-01-23T08:36:33;2.80;99.90
53274;DHT22;39163;52.696;6.758;2023-01-23T08:38:58;2.80;99.90
53274;DHT22;39163;52.696;6.758;2023-01-23T08:41:24;2.90;99.90
53274;DHT22;39163;52.696;6.758;2023-01-23T08:43:53;2.90;99.90
53274;DHT22;39163;52.696;6.758;2023-01-23T08:46:18;2.90;99.90
53274;DHT22;39163;52.696;6.758;2023-01-23T08:48:44;3.00;99.90
53274;DHT22;39163;52.696;6.758;2023-01-23T08:51:11;2.90;99.90
53274;DHT22;39163;52.696;6.758;2023-01-23T08:53:37;3.00;99.90
53274;DHT22;39163;52.696;6.758;2023-01-23T08:56:06;3.10;99.90
53274;DHT22;39163;52.696;6.758;2023-01-23T08:58:32;3.00;99.90
53274;DHT22;39163;52.696;6.758;2023-01-23T09:00:58;3.10;99.90
53274;DHT22;39163;52.696;6.758;2023-01-23T09:03:24;3.10;99.90
53274;DHT22;39163;52.696;6.758;2023-01-23T09:05:50;3.10;99.90
53274;DHT22;39163;52.696;6.758;2023-01-23T09:08:15;3.10;99.90
53274;DHT22;39163;52.696;6.758;2023-01-23T09:10:41;3.10;99.90
53274;DHT22;39163;52.696;6.758;2023-01-23T09:13:07;3.10;99.90
53274;DHT22;39163;52.696;6.758;2023-01-23T09:15:33;3.10;99.90
53274;DHT22;39163;52.696;6.758;2023-01-23T09:17:58;3.10;99.90
53274;DHT22;39163;52.696;6.758;2023-01-23T09:20:24;3.10;99.90
53274;DHT22;39163;52.696;6.758;2023-01-23T09:22:51;3.20;99.90
53274;DHT22;39163;52.696;6.758;2023-01-23T09:25:17;3.20;99.90
53274;DHT22;39163;52.696;6.758;2023-01-23T09:27:42;3.20;99.90
53274;DHT22;39163;52.696;6.758;2023-01-23T09:30:09;3.20;99.90
53274;DHT22;39163;52.696;6.758;2023-01-23T09:32:35;3.20;99.90
53274;DHT22;39163;52.696;6.758;2023-01-23T09:35:00;3.30;99.90
53274;DHT22;39163;52.696;6.758;2023-01-23T09:37:28;3.20;99.90
53274;DHT22;39163;52.696;6.758;2023-01-23T09:39:54;3.30;99.90
53274;DHT22;39163;52.696;6.758;2023-01-23T09:42:21;3.30;99.90
53274;DHT22;39163;52.696;6.758;2023-01-23T09:44:49;3.30;99.90
53274;DHT22;39163;52.696;6.758;2023-01-23T09:47:37;3.40;99.90
53274;DHT22;39163;52.696;6.758;2023-01-23T09:50:07;3.30;99.90
53274;DHT22;39163;52.696;6.758;2023-01-23T09:52:34;3.40;99.90
53274;DHT22;39163;52.696;6.758;2023-01-23T09:57:32;3.50;99.90
53274;DHT22;39163;52.696;6.758;2023-01-23T10:00:16;3.50;99.90
53274;DHT22;39163;52.696;6.758;2023-01-23T10:02:44;3.50;99.90
53274;DHT22;39163;52.696;6.758;2023-01-23T10:05:13;3.50;99.90
53274;DHT22;39163;52.696;6.758;2023-01-23T10:07:46;3.60;99.90
53274;DHT22;39163;52.696;6.758;2023-01-23T10:13:09;3.60;99.90
53274;DHT22;39163;52.696;6.758;2023-01-23T10:26:19;3.80;99.90
53274;DHT22;39163;52.696;6.758;2023-01-23T10:28:46;3.80;99.90
53274;DHT22;39163;52.696;6.758;2023-01-23T10:38:58;3.80;99.90
53274;DHT22;39163;52.696;6.758;2023-01-23T10:41:24;3.90;99.90
53274;DHT22;39163;52.696;6.758;2023-01-23T10:43:51;3.90;99.90
53274;DHT22;39163;52.696;6.758;2023-01-23T10:48:52;4.10;99.90
53274;DHT22;39163;52.696;6.758;2023-01-23T10:51:31;4.20;99.90
53274;DHT22;39163;52.696;6.758;2023-01-23T10:59:18;4.40;99.90
53274;DHT22;39163;52.696;6.758;2023-01-23T11:01:45;4.50;99.90
53274;DHT22;39163;52.696;6.758;2023-01-23T11:04:19;4.50;99.90
53274;DHT22;39163;52.696;6.758;2023-01-23T11:12:18;4.70;99.90
53274;DHT22;39163;52.696;6.758;2023-01-23T11:17:19;4.80;99.90
53274;DHT22;39163;52.696;6.758;2023-01-23T11:19:47;4.90;99.90
53274;DHT22;39163;52.696;6.758;2023-01-23T11:22:23;4.80;99.90
53274;DHT22;39163;52.696;6.758;2023-01-23T11:24:50;4.90;99.90
53274;DHT22;39163;52.696;6.758;2023-01-23T11:27:20;4.90;99.90
53274;DHT22;39163;52.696;6.758;2023-01-23T11:32:58;4.80;99.90
53274;DHT22;39163;52.696;6.758;2023-01-23T11:38:02;4.90;99.90
53274;DHT22;39163;52.696;6.758;2023-01-23T11:40:31;4.90;99.90
53274;DHT22;39163;52.696;6.758;2023-01-23T11:42:59;4.90;99.90
53274;DHT22;39163;52.696;6.758;2023-01-23T11:53:22;4.90;99.90
53274;DHT22;39163;52.696;6.758;2023-01-23T12:01:12;4.80;99.90
53274;DHT22;39163;52.696;6.758;2023-01-23T12:09:11;4.80;99.90
53274;DHT22;39163;52.696;6.758;2023-01-23T12:11:49;4.80;99.90
53274;DHT22;39163;52.696;6.758;2023-01-23T12:14:33;4.90;99.90
53274;DHT22;39163;52.696;6.758;2023-01-23T12:17:07;4.90;99.90
53274;DHT22;39163;52.696;6.758;2023-01-23T12:25:04;4.90;99.90
53274;DHT22;39163;52.696;6.758;2023-01-23T12:30:04;5.00;99.90
53274;DHT22;39163;52.696;6.758;2023-01-23T12:35:32;5.10;99.90
53274;DHT22;39163;52.696;6.758;2023-01-23T12:43:32;5.00;99.90
53274;DHT22;39163;52.696;6.758;2023-01-23T12:49:23;5.10;99.90
53274;DHT22;39163;52.696;6.758;2023-01-23T12:52:13;5.00;99.90
53274;DHT22;39163;52.696;6.758;2023-01-23T12:54:47;5.00;99.90
53274;DHT22;39163;52.696;6.758;2023-01-23T12:57:23;5.00;99.90
53274;DHT22;39163;52.696;6.758;2023-01-23T13:00:21;5.00;99.90
53274;DHT22;39163;52.696;6.758;2023-01-23T13:02:54;5.00;99.90
53274;DHT22;39163;52.696;6.758;2023-01-23T13:08:24;4.90;99.90
53274;DHT22;39163;52.696;6.758;2023-01-23T13:13:53;4.80;99.90
53274;DHT22;39163;52.696;6.758;2023-01-23T13:16:24;4.80;99.90
53274;DHT22;39163;52.696;6.758;2023-01-23T13:19:00;4.80;99.90
53274;DHT22;39163;52.696;6.758;2023-01-23T13:24:45;4.90;99.90
53274;DHT22;39163;52.696;6.758;2023-01-23T13:27:55;4.90;99.90
53274;DHT22;39163;52.696;6.758;2023-01-23T13:49:16;4.80;99.90
53274;DHT22;39163;52.696;6.758;2023-01-23T13:52:07;4.70;99.90
53274;DHT22;39163;52.696;6.758;2023-01-23T13:55:21;4.70;99.90
53274;DHT22;39163;52.696;6.758;2023-01-23T13:58:08;4.80;99.90
53274;DHT22;39163;52.696;6.758;2023-01-23T14:00:44;4.80;99.90
53274;DHT22;39163;52.696;6.758;2023-01-23T14:03:45;4.80;99.90
53274;DHT22;39163;52.696;6.758;2023-01-23T14:06:33;4.80;99.90
53274;DHT22;39163;52.696;6.758;2023-01-23T14:09:16;4.80;99.90
53274;DHT22;39163;52.696;6.758;2023-01-23T14:11:46;4.80;99.90
53274;DHT22;39163;52.696;6.758;2023-01-23T14:14:23;4.80;99.90
53274;DHT22;39163;52.696;6.758;2023-01-23T14:17:07;4.70;99.90
53274;DHT22;39163;52.696;6.758;2023-01-23T14:19:37;4.70;99.90
53274;DHT22;39163;52.696;6.758;2023-01-23T14:22:13;4.70;99.90
53274;DHT22;39163;52.696;6.758;2023-01-23T14:24:46;4.60;99.90
53274;DHT22;39163;52.696;6.758;2023-01-23T14:27:26;4.60;99.90
53274;DHT22;39163;52.696;6.758;2023-01-23T14:29:59;4.60;99.90
53274;DHT22;39163;52.696;6.758;2023-01-23T14:32:29;4.60;99.90
53274;DHT22;39163;52.696;6.758;2023-01-23T14:34:57;4.50;99.90
53274;DHT22;39163;52.696;6.758;2023-01-23T14:37:26;4.50;99.90
53274;DHT22;39163;52.696;6.758;2023-01-23T14:40:02;4.50;99.90
53274;DHT22;39163;52.696;6.758;2023-01-23T14:43:16;4.60;99.90
53274;DHT22;39163;52.696;6.758;2023-01-23T14:46:30;4.50;99.90
53274;DHT22;39163;52.696;6.758;2023-01-23T14:49:14;4.50;99.90
53274;DHT22;39163;52.696;6.758;2023-01-23T14:54:56;4.40;99.90
53274;DHT22;39163;52.696;6.758;2023-01-23T14:57:38;4.40;99.90
53274;DHT22;39163;52.696;6.758;2023-01-23T15:06:19;4.30;99.90
53274;DHT22;39163;52.696;6.758;2023-01-23T15:09:32;4.30;99.90
53274;DHT22;39163;52.696;6.758;2023-01-23T15:12:14;4.30;99.90
53274;DHT22;39163;52.696;6.758;2023-01-23T15:14:43;4.30;99.90
53274;DHT22;39163;52.696;6.758;2023-01-23T15:17:18;4.30;99.90
53274;DHT22;39163;52.696;6.758;2023-01-23T15:19:54;4.30;99.90
53274;DHT22;39163;52.696;6.758;2023-01-23T15:22:34;4.30;99.90
53274;DHT22;39163;52.696;6.758;2023-01-23T15:32:40;4.20;99.90
53274;DHT22;39163;52.696;6.758;2023-01-23T15:35:13;4.10;99.90
53274;DHT22;39163;52.696;6.758;2023-01-23T15:38:14;4.20;99.90
53274;DHT22;39163;52.696;6.758;2023-01-23T15:47:41;4.20;99.90
53274;DHT22;39163;52.696;6.758;2023-01-23T15:50:35;4.10;99.90
53274;DHT22;39163;52.696;6.758;2023-01-23T15:53:18;4.10;99.90
53274;DHT22;39163;52.696;6.758;2023-01-23T15:58:58;4.10;99.90
53274;DHT22;39163;52.696;6.758;2023-01-23T16:01:52;4.10;99.90
53274;DHT22;39163;52.696;6.758;2023-01-23T16:07:38;4.10;99.90
53274;DHT22;39163;52.696;6.758;2023-01-23T16:13:13;4.00;99.90
53274;DHT22;39163;52.696;6.758;2023-01-23T16:15:47;4.00;99.90
53274;DHT22;39163;52.696;6.758;2023-01-23T16:18:33;4.00;99.90
53274;DHT22;39163;52.696;6.758;2023-01-23T16:21:26;4.00;99.90
53274;DHT22;39163;52.696;6.758;2023-01-23T16:27:38;3.90;99.90
53274;DHT22;39163;52.696;6.758;2023-01-23T16:30:17;3.90;99.90
53274;DHT22;39163;52.696;6.758;2023-01-23T16:35:41;3.90;99.90
53274;DHT22;39163;52.696;6.758;2023-01-23T16:41:32;3.80;99.90
53274;DHT22;39163;52.696;6.758;2023-01-23T16:44:05;3.90;99.90
53274;DHT22;39163;52.696;6.758;2023-01-23T16:46:48;3.80;99.90
53274;DHT22;39163;52.696;6.758;2023-01-23T16:49:43;3.80;99.90
53274;DHT22;39163;52.696;6.758;2023-01-23T16:52:10;3.80;99.90
53274;DHT22;39163;52.696;6.758;2023-01-23T16:54:39;3.80;99.90
53274;DHT22;39163;52.696;6.758;2023-01-23T16:57:15;3.80;99.90
53274;DHT22;39163;52.696;6.758;2023-01-23T16:59:45;3.80;99.90
53274;DHT22;39163;52.696;6.758;2023-01-23T17:02:28;3.80;99.90
53274;DHT22;39163;52.696;6.758;2023-01-23T17:04:59;3.80;99.90
53274;DHT22;39163;52.696;6.758;2023-01-23T17:07:25;3.80;99.90
53274;DHT22;39163;52.696;6.758;2023-01-23T17:09:51;3.70;99.90
53274;DHT22;39163;52.696;6.758;2023-01-23T17:12:20;3.70;99.90
53274;DHT22;39163;52.696;6.758;2023-01-23T17:14:47;3.70;99.90
53274;DHT22;39163;52.696;6.758;2023-01-23T17:17:20;3.70;99.90
53274;DHT22;39163;52.696;6.758;2023-01-23T17:19:48;3.70;99.90
53274;DHT22;39163;52.696;6.758;2023-01-23T17:22:20;3.70;99.90
53274;DHT22;39163;52.696;6.758;2023-01-23T17:27:56;3.60;99.90
53274;DHT22;39163;52.696;6.758;2023-01-23T17:30:42;3.70;99.90
53274;DHT22;39163;52.696;6.758;2023-01-23T17:33:16;3.70;99.90
53274;DHT22;39163;52.696;6.758;2023-01-23T17:35:48;3.70;99.90
53274;DHT22;39163;52.696;6.758;2023-01-23T17:38:17;3.70;99.90
53274;DHT22;39163;52.696;6.758;2023-01-23T17:40:46;3.70;99.90
53274;DHT22;39163;52.696;6.758;2023-01-23T17:43:14;3.70;99.90
53274;DHT22;39163;52.696;6.758;2023-01-23T17:45:47;3.70;99.90
53274;DHT22;39163;52.696;6.758;2023-01-23T17:48:27;3.70;99.90
53274;DHT22;39163;52.696;6.758;2023-01-23T21:41:12;3.50;99.90
53274;DHT22;39163;52.696;6.758;2023-01-23T21:43:38;3.50;99.90
53274;DHT22;39163;52.696;6.758;2023-01-23T21:46:04;3.50;99.90
53274;DHT22;39163;52.696;6.758;2023-01-23T21:48:30;3.50;99.90
53274;DHT22;39163;52.696;6.758;2023-01-23T21:51:15;3.50;99.90
53274;DHT22;39163;52.696;6.758;2023-01-23T21:53:42;3.50;99.90
53274;DHT22;39163;52.696;6.758;2023-01-23T21:56:08;3.50;99.90
53274;DHT22;39163;52.696;6.758;2023-01-23T21:58:34;3.50;99.90
53274;DHT22;39163;52.696;6.758;2023-01-23T22:01:04;3.40;99.90
53274;DHT22;39163;52.696;6.758;2023-01-23T22:03:49;3.40;99.90
53274;DHT22;39163;52.696;6.758;2023-01-23T22:06:14;3.40;99.90
53274;DHT22;39163;52.696;6.758;2023-01-23T22:08:40;3.40;99.90
53274;DHT22;39163;52.696;6.758;2023-01-23T22:11:06;3.40;99.90
53274;DHT22;39163;52.696;6.758;2023-01-23T22:13:32;3.40;99.90
53274;DHT22;39163;52.696;6.758;2023-01-23T22:15:58;3.40;99.90
53274;DHT22;39163;52.696;6.758;2023-01-23T22:18:24;3.40;99.90
53274;DHT22;39163;52.696;6.758;2023-01-23T22:20:56;3.40;99.90
53274;DHT22;39163;52.696;6.758;2023-01-23T22:33:24;3.40;99.90
53274;DHT22;39163;52.696;6.758;2023-01-23T22:35:50;3.40;99.90
53274;DHT22;39163;52.696;6.758;2023-01-23T22:38:15;3.40;99.90
53274;DHT22;39163;52.696;6.758;2023-01-23T22:40:41;3.40;99.90
53274;DHT22;39163;52.696;6.758;2023-01-23T22:43:07;3.40;99.90
53274;DHT22;39163;52.696;6.758;2023-01-23T22:45:33;3.40;99.90
53274;DHT22;39163;52.696;6.758;2023-01-23T22:48:01;3.40;99.90
53274;DHT22;39163;52.696;6.758;2023-01-23T22:50:30;3.40;99.90